Time;durP1;ratioP1;P1;durP2;ratioP2;P2;SDS_P1;SDS_P2;PMS_P1;PMS_P2;Temp;Humidity;BMP_temperature;BMP_pressure;BME280_temperature;BME280_humidity;BME280_pressure;Samples;Min_cycle;Max_cycle;Signal;HPM_P1;HPM_P2
2023/08/28 00:01:56;;;;;;;;;;;18.70;83.70;;;;;;5055905;28;20042;-81
2023/08/28 00:04:23;;;;;;;;;;;18.70;83.70;;;;;;5059539;28;20006;-81
2023/08/28 00:06:49;;;;;;;;;;;18.70;83.80;;;;;;5061443;28;20426;-81
2023/08/28 00:09:20;;;;;;;;;;;18.70;83.80;;;;;;5058979;28;19971;-80
2023/08/28 00:11:46;;;;;;;;;;;18.70;83.80;;;;;;5063494;28;19980;-80
2023/08/28 00:14:13;;;;;;;;;;;18.70;83.90;;;;;;5064596;28;20567;-81
2023/08/28 00:16:39;;;;;;;;;;;18.70;83.90;;;;;;5061935;28;20021;-80
2023/08/28 00:19:06;;;;;;;;;;;18.60;83.90;;;;;;5064258;28;19985;-80
2023/08/28 00:21:33;;;;;;;;;;;18.70;84.10;;;;;;5058015;28;19975;-81
2023/08/28 00:23:59;;;;;;;;;;;18.60;84.10;;;;;;5060244;28;19983;-81
2023/08/28 00:26:27;;;;;;;;;;;18.60;84.20;;;;;;5061269;28;19995;-81
2023/08/28 00:28:54;;;;;;;;;;;18.60;84.30;;;;;;5056022;28;19983;-80
2023/08/28 00:31:20;;;;;;;;;;;18.60;85.00;;;;;;5059649;28;20565;-81
2023/08/28 00:33:47;;;;;;;;;;;18.60;84.30;;;;;;5061136;28;20003;-81
2023/08/28 00:36:13;;;;;;;;;;;18.60;84.50;;;;;;5060076;28;20003;-82
2023/08/28 00:38:40;;;;;;;;;;;18.60;84.50;;;;;;5058830;28;20463;-81
2023/08/28 00:41:06;;;;;;;;;;;18.50;84.50;;;;;;5060777;28;19985;-81
2023/08/28 00:43:35;;;;;;;;;;;18.50;84.50;;;;;;5060448;28;19974;-81
2023/08/28 00:46:02;;;;;;;;;;;18.50;84.60;;;;;;5055287;28;20726;-80
2023/08/28 00:48:29;;;;;;;;;;;18.50;84.60;;;;;;5056637;28;20520;-81
2023/08/28 00:50:56;;;;;;;;;;;18.50;84.70;;;;;;5063189;28;21175;-81
2023/08/28 00:53:23;;;;;;;;;;;18.50;84.80;;;;;;5062430;28;19971;-81
2023/08/28 00:55:49;;;;;;;;;;;18.50;84.80;;;;;;5061282;28;19983;-81
2023/08/28 00:58:16;;;;;;;;;;;18.40;84.80;;;;;;5063437;28;20701;-81
2023/08/28 01:00:44;;;;;;;;;;;18.50;84.90;;;;;;5062648;28;19983;-80
2023/08/28 01:03:11;;;;;;;;;;;18.40;84.90;;;;;;5061325;28;19974;-80
2023/08/28 01:05:42;;;;;;;;;;;18.40;85.00;;;;;;5061844;28;19971;-81
2023/08/28 01:08:16;;;;;;;;;;;18.40;85.00;;;;;;5063317;28;19967;-81
2023/08/28 01:10:45;;;;;;;;;;;18.40;85.00;;;;;;5061768;28;19971;-80
2023/08/28 01:13:16;;;;;;;;;;;18.40;85.10;;;;;;5066588;28;19967;-81
2023/08/28 01:15:45;;;;;;;;;;;18.40;85.10;;;;;;5064261;28;19991;-81
2023/08/28 01:18:12;;;;;;;;;;;18.40;85.20;;;;;;5065246;28;19971;-80
2023/08/28 01:20:39;;;;;;;;;;;18.30;85.10;;;;;;5056615;28;19979;-81
2023/08/28 01:23:10;;;;;;;;;;;18.30;85.20;;;;;;5063265;28;19986;-80
2023/08/28 01:25:39;;;;;;;;;;;18.30;85.30;;;;;;5063872;28;19978;-81
2023/08/28 01:28:05;;;;;;;;;;;18.30;85.30;;;;;;5060831;28;19967;-80
2023/08/28 01:30:32;;;;;;;;;;;18.30;85.30;;;;;;5062207;28;19987;-81
2023/08/28 01:32:59;;;;;;;;;;;18.30;85.30;;;;;;5061595;28;20858;-80
2023/08/28 01:35:27;;;;;;;;;;;18.30;85.40;;;;;;5061351;28;20576;-81
2023/08/28 01:38:02;;;;;;;;;;;18.30;85.40;;;;;;5060583;28;20013;-80
2023/08/28 01:40:30;;;;;;;;;;;18.30;85.50;;;;;;5059660;28;20058;-81
2023/08/28 01:42:59;;;;;;;;;;;18.30;85.50;;;;;;5061062;28;19972;-81
2023/08/28 01:45:26;;;;;;;;;;;18.30;85.50;;;;;;5058911;28;21176;-80
2023/08/28 01:47:52;;;;;;;;;;;18.20;85.50;;;;;;5063419;28;20064;-81
2023/08/28 01:50:19;;;;;;;;;;;18.20;85.60;;;;;;5063923;28;19971;-82
2023/08/28 01:52:45;;;;;;;;;;;18.20;85.60;;;;;;5063280;28;19971;-81
2023/08/28 01:55:12;;;;;;;;;;;18.20;85.70;;;;;;5058741;28;19978;-81
2023/08/28 01:57:39;;;;;;;;;;;18.20;85.40;;;;;;5062602;28;20649;-81
2023/08/28 02:00:10;;;;;;;;;;;18.20;85.80;;;;;;5064252;28;19967;-82
2023/08/28 02:02:37;;;;;;;;;;;18.20;85.90;;;;;;5063494;28;19975;-81
2023/08/28 02:05:03;;;;;;;;;;;18.20;85.90;;;;;;5064319;28;19975;-81
2023/08/28 02:07:30;;;;;;;;;;;18.20;85.90;;;;;;5064285;28;19987;-81
2023/08/28 02:09:57;;;;;;;;;;;18.20;86.00;;;;;;5059155;28;19974;-82
2023/08/28 02:12:23;;;;;;;;;;;18.10;85.90;;;;;;5059096;28;19998;-81
2023/08/28 02:14:50;;;;;;;;;;;18.10;86.00;;;;;;5061531;28;20448;-82
2023/08/28 02:17:17;;;;;;;;;;;18.10;86.00;;;;;;5054187;28;19995;-82
2023/08/28 02:19:44;;;;;;;;;;;18.10;86.10;;;;;;5061446;28;20753;-81
2023/08/28 02:22:11;;;;;;;;;;;18.10;86.10;;;;;;5065533;28;20432;-81
2023/08/28 02:24:37;;;;;;;;;;;18.10;86.20;;;;;;5056687;28;19967;-82
2023/08/28 02:27:04;;;;;;;;;;;18.10;86.30;;;;;;5065249;28;20464;-82
2023/08/28 02:29:30;;;;;;;;;;;18.10;86.30;;;;;;5060492;28;19967;-81
2023/08/28 02:31:57;;;;;;;;;;;18.10;86.40;;;;;;5064596;28;19983;-81
2023/08/28 02:34:25;;;;;;;;;;;18.10;86.40;;;;;;5059846;28;19987;-81
2023/08/28 02:36:52;;;;;;;;;;;18.10;86.50;;;;;;5058585;28;19983;-82
2023/08/28 02:39:18;;;;;;;;;;;18.00;86.40;;;;;;5061049;28;20007;-82
2023/08/28 02:41:45;;;;;;;;;;;18.00;86.50;;;;;;5061107;28;19967;-81
2023/08/28 02:44:11;;;;;;;;;;;18.00;86.50;;;;;;5062120;28;19971;-81
2023/08/28 02:46:38;;;;;;;;;;;18.00;86.60;;;;;;5061963;28;19994;-81
2023/08/28 02:49:04;;;;;;;;;;;17.90;86.60;;;;;;5059919;28;20010;-81
2023/08/28 02:51:32;;;;;;;;;;;18.00;86.70;;;;;;5060436;28;19982;-81
2023/08/28 02:53:59;;;;;;;;;;;18.00;86.80;;;;;;5060668;28;19968;-81
2023/08/28 02:56:26;;;;;;;;;;;18.00;86.80;;;;;;5060010;28;19991;-81
2023/08/28 02:58:53;;;;;;;;;;;18.00;86.80;;;;;;5063146;28;20050;-82
2023/08/28 03:01:20;;;;;;;;;;;17.90;86.80;;;;;;5059688;28;20411;-82
2023/08/28 03:03:46;;;;;;;;;;;17.90;86.80;;;;;;5059644;28;19978;-83
2023/08/28 03:06:13;;;;;;;;;;;17.90;86.90;;;;;;5055865;28;19984;-82
2023/08/28 03:08:41;;;;;;;;;;;17.90;86.90;;;;;;5062228;28;19975;-81
2023/08/28 03:11:07;;;;;;;;;;;17.90;87.00;;;;;;5064456;28;20433;-80
2023/08/28 03:13:34;;;;;;;;;;;17.90;87.00;;;;;;5060714;28;19971;-81
2023/08/28 03:16:00;;;;;;;;;;;17.90;87.00;;;;;;5059278;28;19986;-81
2023/08/28 03:18:27;;;;;;;;;;;17.80;87.00;;;;;;5058648;28;19979;-82
2023/08/28 03:20:53;;;;;;;;;;;17.80;87.10;;;;;;5060709;28;19974;-81
2023/08/28 03:23:20;;;;;;;;;;;17.80;87.10;;;;;;5061528;28;20357;-81
2023/08/28 03:25:49;;;;;;;;;;;17.80;87.20;;;;;;5062238;28;19993;-82
2023/08/28 03:28:16;;;;;;;;;;;17.80;87.30;;;;;;5065552;28;19963;-83
2023/08/28 03:30:43;;;;;;;;;;;17.80;87.30;;;;;;5059060;28;19994;-81
2023/08/28 03:33:09;;;;;;;;;;;17.80;87.30;;;;;;5058868;28;19982;-80
2023/08/28 03:35:36;;;;;;;;;;;17.70;87.20;;;;;;5063734;28;19999;-81
2023/08/28 03:38:02;;;;;;;;;;;17.70;87.20;;;;;;5065880;28;20001;-81
2023/08/28 03:40:29;;;;;;;;;;;17.70;87.30;;;;;;5061763;28;20438;-81
2023/08/28 03:42:57;;;;;;;;;;;17.70;87.40;;;;;;5059000;28;20454;-81
2023/08/28 03:45:23;;;;;;;;;;;17.70;87.40;;;;;;5058417;28;20364;-81
2023/08/28 03:47:50;;;;;;;;;;;17.70;87.40;;;;;;5060675;28;20002;-81
2023/08/28 03:50:16;;;;;;;;;;;17.70;87.50;;;;;;5061179;28;19991;-82
2023/08/28 03:52:43;;;;;;;;;;;17.60;87.50;;;;;;5054414;28;20048;-81
2023/08/28 03:55:10;;;;;;;;;;;17.60;87.50;;;;;;5058644;28;20003;-80
2023/08/28 03:57:37;;;;;;;;;;;17.60;87.60;;;;;;5052859;28;20085;-80
2023/08/28 04:00:11;;;;;;;;;;;17.70;87.70;;;;;;5060669;28;19976;-80
2023/08/28 04:02:38;;;;;;;;;;;17.60;87.60;;;;;;5059154;28;19991;-80
2023/08/28 04:05:06;;;;;;;;;;;17.60;87.60;;;;;;5058826;28;20083;-81
2023/08/28 04:07:32;;;;;;;;;;;17.60;87.70;;;;;;5057555;28;19992;-81
2023/08/28 04:09:59;;;;;;;;;;;17.60;87.70;;;;;;5058204;28;19986;-81
2023/08/28 04:12:26;;;;;;;;;;;17.60;87.70;;;;;;5061909;28;20032;-81
2023/08/28 04:14:52;;;;;;;;;;;17.60;87.70;;;;;;5064144;28;20097;-81
2023/08/28 04:17:20;;;;;;;;;;;17.50;87.70;;;;;;5056571;28;19995;-81
2023/08/28 04:19:49;;;;;;;;;;;17.50;87.70;;;;;;5062981;28;20457;-81
2023/08/28 04:22:16;;;;;;;;;;;17.50;87.70;;;;;;5065571;28;20373;-80
2023/08/28 04:24:44;;;;;;;;;;;17.50;87.80;;;;;;5063459;28;20007;-80
2023/08/28 04:27:10;;;;;;;;;;;17.40;87.80;;;;;;5061248;28;20669;-81
2023/08/28 04:29:37;;;;;;;;;;;17.50;87.80;;;;;;5067170;28;19983;-81
2023/08/28 04:32:04;;;;;;;;;;;17.50;87.90;;;;;;5067033;28;20584;-81
2023/08/28 04:34:32;;;;;;;;;;;17.40;87.80;;;;;;5064588;28;20114;-81
2023/08/28 04:36:58;;;;;;;;;;;17.40;87.80;;;;;;5063660;28;19995;-82
2023/08/28 04:39:25;;;;;;;;;;;17.40;87.90;;;;;;5064310;28;19975;-81
2023/08/28 04:41:52;;;;;;;;;;;17.40;87.90;;;;;;5064395;28;19984;-81
2023/08/28 04:44:19;;;;;;;;;;;17.40;87.90;;;;;;5062466;28;20078;-81
2023/08/28 04:46:47;;;;;;;;;;;17.40;87.90;;;;;;5059176;28;20000;-81
2023/08/28 04:49:14;;;;;;;;;;;17.40;88.00;;;;;;5067488;28;20058;-80
2023/08/28 04:51:42;;;;;;;;;;;17.40;88.00;;;;;;5061905;28;19979;-79
2023/08/28 04:54:09;;;;;;;;;;;17.30;88.10;;;;;;5060119;28;19961;-79
2023/08/28 04:56:35;;;;;;;;;;;17.10;89.60;;;;;;5063084;28;19932;-79
2023/08/28 04:59:02;;;;;;;;;;;17.00;90.10;;;;;;5065840;28;19951;-79
2023/08/28 05:01:29;;;;;;;;;;;17.00;90.20;;;;;;5063100;28;19935;-79
2023/08/28 05:03:58;;;;;;;;;;;17.00;90.10;;;;;;5066103;28;19935;-78
2023/08/28 05:06:30;;;;;;;;;;;17.00;90.00;;;;;;5063458;28;20388;-78
2023/08/28 05:09:01;;;;;;;;;;;17.00;89.90;;;;;;5061255;28;19968;-80
2023/08/28 05:11:30;;;;;;;;;;;17.10;89.70;;;;;;5064923;28;20020;-79
2023/08/28 05:14:00;;;;;;;;;;;17.10;89.60;;;;;;5067299;28;19935;-78
2023/08/28 05:16:33;;;;;;;;;;;17.20;89.50;;;;;;5065245;28;20600;-79
2023/08/28 05:19:05;;;;;;;;;;;17.20;89.30;;;;;;5063052;28;19948;-79
2023/08/28 05:21:35;;;;;;;;;;;17.10;89.10;;;;;;5065975;28;19979;-79
2023/08/28 05:24:03;;;;;;;;;;;17.20;89.10;;;;;;5067020;28;19983;-79
2023/08/28 05:26:31;;;;;;;;;;;17.20;89.10;;;;;;5070438;28;20013;-80
2023/08/28 05:29:11;;;;;;;;;;;17.20;89.00;;;;;;5070449;28;19966;-79
2023/08/28 05:31:51;;;;;;;;;;;17.20;88.90;;;;;;5065106;28;20436;-80
2023/08/28 05:34:17;;;;;;;;;;;17.20;88.90;;;;;;5059946;28;19971;-80
2023/08/28 05:36:44;;;;;;;;;;;17.20;88.90;;;;;;5062919;28;19929;-80
2023/08/28 05:39:12;;;;;;;;;;;17.20;88.90;;;;;;5062398;28;19935;-81
2023/08/28 05:41:38;;;;;;;;;;;17.20;88.90;;;;;;5064597;28;19979;-80
2023/08/28 05:44:05;;;;;;;;;;;17.20;88.90;;;;;;5065010;28;19928;-80
2023/08/28 05:46:32;;;;;;;;;;;17.20;88.90;;;;;;5062055;28;19929;-81
2023/08/28 05:55:06;;;;;;;;;;;17.20;88.90;;;;;;5052636;28;19928;-81
2023/08/28 05:57:34;;;;;;;;;;;17.20;88.90;;;;;;5063800;28;19936;-80
2023/08/28 06:31:27;;;;;;;;;;;17.10;89.20;;;;;;5058215;28;19980;-80
2023/08/28 06:33:53;;;;;;;;;;;17.10;89.20;;;;;;5066577;28;19967;-80
2023/08/28 06:36:20;;;;;;;;;;;17.10;89.20;;;;;;5057613;28;20007;-81
2023/08/28 06:38:49;;;;;;;;;;;17.10;89.40;;;;;;5057372;28;20411;-81
2023/08/28 06:41:16;;;;;;;;;;;17.10;89.30;;;;;;5060571;28;19966;-80
2023/08/28 06:43:43;;;;;;;;;;;17.10;89.30;;;;;;5063057;28;19994;-80
2023/08/28 06:46:09;;;;;;;;;;;17.10;89.40;;;;;;5061871;28;20452;-80
2023/08/28 06:48:37;;;;;;;;;;;17.10;89.40;;;;;;5064608;28;19982;-81
2023/08/28 06:51:04;;;;;;;;;;;17.10;89.30;;;;;;5062240;28;19998;-81
2023/08/28 06:53:31;;;;;;;;;;;17.10;89.40;;;;;;5063904;28;20025;-80
2023/08/28 06:55:57;;;;;;;;;;;17.10;89.40;;;;;;5045545;28;20028;-81
2023/08/28 06:58:24;;;;;;;;;;;17.10;89.40;;;;;;5041000;28;19965;-81
2023/08/28 07:10:51;;;;;;;;;;;;;;;;;;;;;
2023/08/28 07:20:26;;;;;;;;;;;17.00;89.30;;;;;;4938522;28;19973;-79
2023/08/28 07:32:06;;;;;;;;;;;17.00;89.10;;;;;;4980294;28;19975;-82
2023/08/28 07:34:33;;;;;;;;;;;17.00;89.20;;;;;;4976339;28;20658;-81
2023/08/28 07:36:59;;;;;;;;;;;17.00;89.20;;;;;;5002828;28;20094;-80
2023/08/28 07:39:26;;;;;;;;;;;17.00;89.10;;;;;;5037264;28;19976;-80
2023/08/28 07:41:53;;;;;;;;;;;17.10;89.10;;;;;;5034671;28;19980;-80
2023/08/28 07:44:20;;;;;;;;;;;17.10;89.20;;;;;;5037754;28;19987;-80
2023/08/28 07:46:46;;;;;;;;;;;17.10;89.10;;;;;;5036670;28;20017;-82
2023/08/28 07:49:14;;;;;;;;;;;17.10;89.00;;;;;;5039139;28;19979;-80
2023/08/28 07:51:41;;;;;;;;;;;17.10;89.00;;;;;;5037586;28;19980;-81
2023/08/28 07:54:07;;;;;;;;;;;17.10;89.00;;;;;;5037064;28;21000;-80
2023/08/28 07:56:34;;;;;;;;;;;17.10;88.90;;;;;;5038147;28;19995;-81
2023/08/28 07:59:01;;;;;;;;;;;17.10;88.90;;;;;;5040651;28;19980;-80
2023/08/28 08:01:26;;;;;;;;;;;17.10;88.80;;;;;;5038839;28;19992;-81
2023/08/28 08:03:53;;;;;;;;;;;17.10;88.80;;;;;;5044116;28;19986;-78
2023/08/28 08:06:21;;;;;;;;;;;17.10;88.80;;;;;;5042430;28;19992;-81
2023/08/28 08:08:48;;;;;;;;;;;17.10;88.80;;;;;;5044997;28;19980;-82
2023/08/28 08:11:14;;;;;;;;;;;17.10;88.80;;;;;;5041864;28;19986;-81
2023/08/28 08:13:41;;;;;;;;;;;17.10;88.80;;;;;;5042212;28;19987;-81
2023/08/28 08:16:08;;;;;;;;;;;17.10;88.70;;;;;;5041300;28;19995;-80
2023/08/28 08:18:34;;;;;;;;;;;17.10;88.70;;;;;;5043254;28;19982;-80
2023/08/28 08:21:01;;;;;;;;;;;17.10;88.70;;;;;;5042485;28;19979;-81
2023/08/28 08:23:29;;;;;;;;;;;17.20;88.80;;;;;;5044188;28;19983;-82
2023/08/28 08:25:55;;;;;;;;;;;17.10;88.70;;;;;;5043830;28;19986;-80
2023/08/28 08:28:22;;;;;;;;;;;17.10;88.60;;;;;;5045741;28;19980;-81
2023/08/28 08:30:48;;;;;;;;;;;17.10;88.50;;;;;;5047437;28;20000;-81
2023/08/28 08:33:15;;;;;;;;;;;17.10;88.50;;;;;;5059802;28;19976;-81
2023/08/28 08:35:41;;;;;;;;;;;17.20;88.60;;;;;;5060155;28;19983;-80
2023/08/28 08:38:08;;;;;;;;;;;17.10;88.50;;;;;;5053745;28;19991;-80
2023/08/28 08:40:40;;;;;;;;;;;17.20;88.50;;;;;;5059230;28;20043;-80
2023/08/28 08:43:07;;;;;;;;;;;17.20;88.50;;;;;;5056903;28;19983;-80
2023/08/28 08:45:35;;;;;;;;;;;17.20;88.50;;;;;;5052082;28;20002;-81
2023/08/28 08:48:03;;;;;;;;;;;17.20;88.50;;;;;;5058639;28;20515;-80
2023/08/28 08:50:31;;;;;;;;;;;17.10;88.40;;;;;;5056376;28;19983;-80
2023/08/28 08:53:00;;;;;;;;;;;17.20;88.50;;;;;;5054966;28;19987;-81
2023/08/28 08:55:30;;;;;;;;;;;17.20;88.50;;;;;;5057575;28;19976;-81
2023/08/28 08:58:00;;;;;;;;;;;17.20;88.40;;;;;;5059469;28;20007;-81
2023/08/28 09:00:27;;;;;;;;;;;17.20;88.40;;;;;;5057041;28;19995;-78
2023/08/28 09:02:54;;;;;;;;;;;17.20;88.40;;;;;;5058397;28;20530;-74
2023/08/28 09:05:21;;;;;;;;;;;17.20;88.40;;;;;;5051063;28;19980;-75
2023/08/28 09:07:48;;;;;;;;;;;17.20;88.50;;;;;;5057050;28;20003;-75
2023/08/28 09:10:14;;;;;;;;;;;17.20;88.50;;;;;;5053247;28;19975;-74
2023/08/28 09:12:41;;;;;;;;;;;17.20;88.40;;;;;;5059951;28;19994;-74
2023/08/28 09:15:10;;;;;;;;;;;17.20;88.40;;;;;;5052254;28;19980;-75
2023/08/28 09:17:38;;;;;;;;;;;17.20;88.30;;;;;;5059329;28;20023;-75
2023/08/28 09:20:13;;;;;;;;;;;17.20;88.30;;;;;;5062456;28;20019;-75
2023/08/28 09:22:44;;;;;;;;;;;17.20;88.20;;;;;;5061476;28;19983;-74
2023/08/28 09:25:11;;;;;;;;;;;17.20;88.10;;;;;;5060860;28;19979;-74
2023/08/28 09:27:39;;;;;;;;;;;17.20;88.10;;;;;;5059367;28;20179;-75
2023/08/28 09:30:08;;;;;;;;;;;17.30;88.10;;;;;;5062039;28;19978;-73
2023/08/28 09:32:35;;;;;;;;;;;17.30;88.00;;;;;;5057393;28;20044;-72
2023/08/28 09:35:07;;;;;;;;;;;17.30;87.90;;;;;;5051641;28;19983;-72
2023/08/28 09:37:34;;;;;;;;;;;17.40;87.90;;;;;;5056871;28;19996;-73
2023/08/28 09:40:01;;;;;;;;;;;17.30;87.70;;;;;;5058519;28;19976;-72
2023/08/28 09:42:27;;;;;;;;;;;17.30;87.80;;;;;;5055458;28;20029;-75
2023/08/28 09:44:54;;;;;;;;;;;17.30;87.70;;;;;;5054911;28;19975;-74
2023/08/28 09:47:21;;;;;;;;;;;17.30;87.60;;;;;;5062944;28;20002;-75
2023/08/28 09:49:49;;;;;;;;;;;17.30;87.80;;;;;;5063433;28;20495;-75
2023/08/28 09:52:24;;;;;;;;;;;17.30;88.00;;;;;;5057535;28;19976;-74
2023/08/28 09:55:00;;;;;;;;;;;17.40;88.40;;;;;;5062887;28;20440;-75
2023/08/28 09:57:26;;;;;;;;;;;17.40;88.90;;;;;;5057849;28;19995;-75
2023/08/28 09:59:53;;;;;;;;;;;17.40;88.90;;;;;;5058828;28;19982;-75
2023/08/28 10:35:56;;;;;;;;;;;17.70;88.30;;;;;;5055620;28;19970;-74
2023/08/28 10:38:23;;;;;;;;;;;17.70;87.40;;;;;;5059463;28;20082;-74
2023/08/28 10:40:51;;;;;;;;;;;17.70;87.50;;;;;;5056998;28;19987;-75
2023/08/28 10:43:19;;;;;;;;;;;17.80;87.00;;;;;;5065196;28;19983;-75
2023/08/28 10:45:46;;;;;;;;;;;17.80;86.70;;;;;;5059589;28;20003;-75
2023/08/28 10:48:13;;;;;;;;;;;17.80;86.90;;;;;;5060890;28;19976;-74
2023/08/28 10:50:40;;;;;;;;;;;17.90;86.40;;;;;;5056584;28;20064;-74
2023/08/28 10:53:08;;;;;;;;;;;17.90;86.20;;;;;;5051498;28;19980;-74
2023/08/28 10:55:35;;;;;;;;;;;17.90;86.20;;;;;;5060166;28;19976;-75
2023/08/28 10:58:03;;;;;;;;;;;17.90;86.30;;;;;;5059575;28;20476;-74
2023/08/28 11:00:29;;;;;;;;;;;17.90;85.70;;;;;;5053872;28;20018;-75
2023/08/28 11:03:03;;;;;;;;;;;18.00;85.90;;;;;;5055367;28;19976;-75
2023/08/28 11:05:30;;;;;;;;;;;18.00;85.60;;;;;;5055188;28;20460;-75
2023/08/28 11:07:56;;;;;;;;;;;18.00;85.50;;;;;;5055839;28;19992;-74
2023/08/28 11:10:25;;;;;;;;;;;18.10;85.60;;;;;;5059398;28;19975;-75
2023/08/28 11:12:53;;;;;;;;;;;18.10;85.10;;;;;;5054154;28;19983;-75
2023/08/28 11:15:27;;;;;;;;;;;18.10;85.10;;;;;;5056536;28;20059;-75
2023/08/28 11:18:09;;;;;;;;;;;18.10;84.60;;;;;;5043178;28;20466;-74
2023/08/28 11:20:36;;;;;;;;;;;18.20;84.10;;;;;;5035596;28;19987;-74
2023/08/28 11:23:03;;;;;;;;;;;18.20;83.90;;;;;;5036217;28;20001;-74
2023/08/28 11:25:37;;;;;;;;;;;18.20;84.00;;;;;;5035721;28;20483;-74
2023/08/28 11:28:04;;;;;;;;;;;18.30;83.90;;;;;;5036866;28;20610;-76
2023/08/28 11:30:31;;;;;;;;;;;18.30;83.50;;;;;;5035686;28;21024;-74
2023/08/28 11:32:58;;;;;;;;;;;18.30;83.50;;;;;;5032342;28;19979;-75
2023/08/28 11:35:24;;;;;;;;;;;18.30;83.40;;;;;;5034497;28;19987;-75
2023/08/28 11:37:51;;;;;;;;;;;18.30;83.00;;;;;;5035438;28;21009;-73
2023/08/28 11:40:19;;;;;;;;;;;18.30;83.20;;;;;;5038023;28;19975;-75
2023/08/28 11:42:48;;;;;;;;;;;18.40;83.60;;;;;;5035188;28;20492;-75
2023/08/28 11:45:19;;;;;;;;;;;18.40;82.90;;;;;;5034374;28;19986;-74
2023/08/28 11:47:45;;;;;;;;;;;18.40;82.40;;;;;;5034463;28;20072;-75
2023/08/28 11:50:12;;;;;;;;;;;18.40;82.60;;;;;;5033298;28;19979;-74
2023/08/28 11:52:39;;;;;;;;;;;18.50;82.20;;;;;;5035004;28;19984;-73
2023/08/28 11:55:06;;;;;;;;;;;18.50;81.90;;;;;;5037693;28;19980;-73
2023/08/28 11:57:33;;;;;;;;;;;18.50;82.50;;;;;;5036388;28;19992;-74
2023/08/28 12:00:01;;;;;;;;;;;18.50;82.50;;;;;;5036260;28;19988;-73
2023/08/28 12:02:30;;;;;;;;;;;18.60;82.30;;;;;;5034548;28;19996;-74
2023/08/28 12:04:56;;;;;;;;;;;18.60;81.90;;;;;;5034478;28;19980;-72
2023/08/28 12:07:23;;;;;;;;;;;18.60;81.60;;;;;;5034416;28;19991;-74
2023/08/28 12:09:52;;;;;;;;;;;18.60;81.40;;;;;;5034721;28;19983;-75
2023/08/28 12:12:19;;;;;;;;;;;18.60;80.90;;;;;;5035562;28;19986;-74
2023/08/28 12:14:46;;;;;;;;;;;18.70;81.50;;;;;;5036148;28;19980;-74
2023/08/28 12:17:15;;;;;;;;;;;18.60;81.20;;;;;;5035047;28;20007;-74
2023/08/28 12:53:17;;;;;;;;;;;19.00;79.10;;;;;;5049261;28;20016;-74
2023/08/28 12:55:44;;;;;;;;;;;19.00;79.60;;;;;;5064996;28;19980;-72
2023/08/28 12:58:10;;;;;;;;;;;19.00;79.40;;;;;;5064176;28;19995;-74
2023/08/28 13:00:37;;;;;;;;;;;19.10;79.80;;;;;;5058265;28;20003;-74
2023/08/28 13:03:04;;;;;;;;;;;19.10;79.70;;;;;;5062588;28;19982;-74
2023/08/28 13:05:30;;;;;;;;;;;19.10;79.90;;;;;;5062373;28;19976;-74
2023/08/28 13:07:58;;;;;;;;;;;19.10;79.20;;;;;;5064241;28;19991;-74
2023/08/28 13:10:26;;;;;;;;;;;19.10;79.80;;;;;;5064558;28;21133;-74
2023/08/28 13:12:52;;;;;;;;;;;19.10;79.60;;;;;;5063703;28;19975;-73
2023/08/28 13:15:19;;;;;;;;;;;19.10;79.40;;;;;;5064569;28;19972;-75
2023/08/28 13:17:45;;;;;;;;;;;19.10;79.40;;;;;;5057650;28;20483;-73
2023/08/28 13:20:12;;;;;;;;;;;19.10;79.20;;;;;;5060539;28;19976;-74
2023/08/28 13:22:39;;;;;;;;;;;19.20;79.40;;;;;;5054372;28;19983;-74
2023/08/28 13:25:06;;;;;;;;;;;19.20;79.20;;;;;;5062920;28;19975;-74
2023/08/28 13:27:34;;;;;;;;;;;19.20;79.10;;;;;;5065475;28;19998;-73
2023/08/28 13:30:00;;;;;;;;;;;19.20;78.60;;;;;;5055486;28;19982;-74
2023/08/28 13:32:29;;;;;;;;;;;19.20;79.20;;;;;;5062595;28;19991;-73
2023/08/28 13:34:55;;;;;;;;;;;19.20;79.30;;;;;;5060149;28;19976;-74
2023/08/28 13:37:22;;;;;;;;;;;19.20;79.50;;;;;;5055549;28;20002;-74
2023/08/28 13:39:48;;;;;;;;;;;19.20;78.90;;;;;;5061144;28;19979;-74
2023/08/28 13:42:16;;;;;;;;;;;19.20;78.50;;;;;;5059608;28;20570;-73
2023/08/28 13:44:43;;;;;;;;;;;19.30;78.60;;;;;;5058632;28;20118;-75
2023/08/28 13:47:10;;;;;;;;;;;19.30;78.40;;;;;;5059042;28;19995;-75
2023/08/28 13:49:36;;;;;;;;;;;19.20;77.60;;;;;;5059638;28;19982;-74
2023/08/28 13:52:03;;;;;;;;;;;19.30;78.10;;;;;;5061613;28;19980;-73
2023/08/28 13:54:30;;;;;;;;;;;19.30;78.20;;;;;;5041563;28;19979;-74
2023/08/28 13:56:56;;;;;;;;;;;19.30;78.40;;;;;;5043142;28;19995;-74
2023/08/28 13:59:23;;;;;;;;;;;19.30;78.70;;;;;;5045387;28;19991;-74
2023/08/28 14:01:51;;;;;;;;;;;19.30;78.30;;;;;;5042068;28;20002;-75
2023/08/28 14:04:17;;;;;;;;;;;19.30;78.60;;;;;;5042390;28;19986;-74
2023/08/28 14:06:44;;;;;;;;;;;19.30;78.30;;;;;;5043891;28;19992;-74
2023/08/28 14:09:10;;;;;;;;;;;19.30;78.00;;;;;;5044931;28;19983;-74
2023/08/28 14:11:37;;;;;;;;;;;19.30;78.20;;;;;;5044298;28;19976;-74
2023/08/28 14:14:04;;;;;;;;;;;19.30;78.40;;;;;;5043887;28;19986;-73
2023/08/28 14:16:30;;;;;;;;;;;19.30;78.00;;;;;;5044225;28;20008;-74
2023/08/28 14:18:58;;;;;;;;;;;19.30;77.90;;;;;;5042283;28;19992;-74
2023/08/28 14:21:24;;;;;;;;;;;19.30;78.00;;;;;;5044493;28;19980;-73
2023/08/28 14:23:51;;;;;;;;;;;19.30;77.90;;;;;;5041120;28;19998;-73
2023/08/28 14:26:18;;;;;;;;;;;19.30;76.80;;;;;;5043442;28;19996;-75
2023/08/28 14:28:44;;;;;;;;;;;19.40;77.20;;;;;;5043644;28;19975;-75
2023/08/28 14:31:11;;;;;;;;;;;19.40;77.00;;;;;;5043377;28;19995;-72
2023/08/28 14:33:37;;;;;;;;;;;19.40;76.50;;;;;;5038392;28;19976;-75
2023/08/28 14:36:06;;;;;;;;;;;19.40;76.90;;;;;;5040204;28;19984;-73
2023/08/28 14:38:32;;;;;;;;;;;19.40;76.90;;;;;;5042371;28;20128;-74
2023/08/28 14:40:59;;;;;;;;;;;19.40;76.50;;;;;;5041375;28;19982;-74
2023/08/28 14:43:25;;;;;;;;;;;19.40;76.80;;;;;;5042415;28;19975;-73
2023/08/28 14:45:52;;;;;;;;;;;19.40;76.30;;;;;;5040586;28;20002;-72
2023/08/28 14:48:19;;;;;;;;;;;19.40;75.10;;;;;;5042659;28;19981;-74
2023/08/28 14:50:45;;;;;;;;;;;19.40;75.30;;;;;;5043398;28;19986;-73
2023/08/28 14:53:13;;;;;;;;;;;19.50;75.30;;;;;;5047341;28;19979;-75
2023/08/28 14:55:40;;;;;;;;;;;19.40;75.00;;;;;;5060320;28;19979;-74
2023/08/28 14:58:07;;;;;;;;;;;19.40;75.80;;;;;;5056508;28;20010;-76
2023/08/28 15:00:34;;;;;;;;;;;19.50;75.60;;;;;;5055461;28;20116;-74
2023/08/28 15:03:00;;;;;;;;;;;19.50;76.00;;;;;;5055838;28;19975;-76
2023/08/28 15:05:30;;;;;;;;;;;19.50;75.90;;;;;;5058054;28;19975;-74
2023/08/28 15:07:56;;;;;;;;;;;19.40;75.60;;;;;;5054902;28;19995;-76
2023/08/28 15:10:25;;;;;;;;;;;19.50;75.40;;;;;;5057313;28;19975;-74
2023/08/28 15:12:52;;;;;;;;;;;19.50;75.40;;;;;;5056317;28;19976;-72
2023/08/28 15:15:19;;;;;;;;;;;19.50;74.40;;;;;;5053113;28;19982;-75
2023/08/28 15:17:45;;;;;;;;;;;19.40;74.90;;;;;;5059384;28;19995;-75
2023/08/28 15:20:12;;;;;;;;;;;19.50;74.70;;;;;;5052329;28;19982;-74
2023/08/28 15:22:38;;;;;;;;;;;19.50;74.90;;;;;;5058194;28;19995;-75
2023/08/28 15:25:05;;;;;;;;;;;19.50;74.70;;;;;;5060735;28;19979;-75
2023/08/28 15:27:33;;;;;;;;;;;19.50;74.80;;;;;;5060814;28;20053;-74
2023/08/28 15:30:00;;;;;;;;;;;19.50;74.50;;;;;;5059515;28;19980;-73
2023/08/28 15:32:26;;;;;;;;;;;19.50;74.40;;;;;;5055958;28;20069;-75
2023/08/28 15:34:53;;;;;;;;;;;19.40;75.60;;;;;;5050853;28;19976;-74
2023/08/28 15:37:19;;;;;;;;;;;19.50;74.70;;;;;;5060153;28;19991;-75
2023/08/28 15:39:46;;;;;;;;;;;19.50;74.50;;;;;;5058555;28;19992;-75
2023/08/28 15:42:12;;;;;;;;;;;19.40;74.80;;;;;;5046298;28;19979;-75
2023/08/28 15:44:40;;;;;;;;;;;19.40;73.90;;;;;;5055872;28;19991;-75
2023/08/28 15:47:07;;;;;;;;;;;19.50;73.30;;;;;;5050772;28;19999;-74
2023/08/28 15:49:34;;;;;;;;;;;19.40;73.20;;;;;;5059239;28;21067;-74
2023/08/28 15:52:00;;;;;;;;;;;19.40;72.50;;;;;;5054060;28;19975;-74
2023/08/28 15:54:27;;;;;;;;;;;19.40;72.20;;;;;;5057927;28;19979;-74
2023/08/28 15:56:53;;;;;;;;;;;19.40;72.10;;;;;;5055905;28;19996;-73
2023/08/28 15:59:20;;;;;;;;;;;19.40;72.20;;;;;;5061556;28;19998;-75
2023/08/28 16:01:48;;;;;;;;;;;19.40;72.90;;;;;;5055510;28;20006;-74
2023/08/28 16:04:15;;;;;;;;;;;19.40;73.00;;;;;;5057529;28;20486;-74
2023/08/28 16:06:42;;;;;;;;;;;19.40;72.90;;;;;;5053994;28;20042;-74
2023/08/28 16:09:09;;;;;;;;;;;19.40;72.30;;;;;;5060130;28;19982;-74
2023/08/28 16:11:35;;;;;;;;;;;19.40;72.90;;;;;;5058660;28;20683;-74
2023/08/28 16:14:02;;;;;;;;;;;19.40;72.90;;;;;;5055104;28;19983;-73
2023/08/28 16:16:29;;;;;;;;;;;19.40;72.30;;;;;;5050097;28;20003;-74
2023/08/28 16:18:57;;;;;;;;;;;19.40;72.30;;;;;;5059860;28;19991;-74
2023/08/28 16:21:23;;;;;;;;;;;19.40;73.20;;;;;;5060841;28;19975;-72
2023/08/28 16:23:50;;;;;;;;;;;19.40;73.10;;;;;;5064518;28;20013;-74
2023/08/28 16:26:16;;;;;;;;;;;19.40;72.60;;;;;;5067627;28;19998;-74
2023/08/28 16:28:43;;;;;;;;;;;19.40;72.50;;;;;;5067001;28;19982;-74
2023/08/28 16:31:10;;;;;;;;;;;19.40;73.20;;;;;;5062913;28;20002;-78